首页
METAR-TAF:

METAR-TAF

机场 :

里士满, 弗吉尼亚州, 美国

纬度: 37-24-24N, 经度: 077-31-30W, 海拔: 72米

当前天气观测

该预报发布于1小时和12分钟前的18:56 UTC
风速8节,风向北转西北
温度 2°C
湿度 32%
气压 1033 hPa
能見度: 16.1公里
天空无云

METAR: KFCI 211856Z AUTO 33008KT 10SM CLR 02/M13 A3050 RMK AO2 SLP342 T00221128 FZRANO

时间: 15:08 (20:08 UTC)


TAF: 丢失

超过4000个机场的气象观测和天气预报(METAR&TAF报告)。

可查询的气象台以黄色和红色小点在地图上表示。

将鼠标移到小点上方,可查看气象台名称。

然后点击查看天气观测和预报。

如需切换地图:点击带黑十字的绿色按钮放大地图;点击带横线的绿色按钮缩小地图;或者点击绿色箭头查看邻近地区的地图。


METAR-TAF: